createdAt,value
2023-09-02T00:01:51.773Z,22.30
2023-09-02T00:04:20.114Z,22.40
2023-09-02T00:06:48.402Z,22.60
2023-09-02T00:09:16.863Z,22.70
2023-09-02T00:11:45.181Z,22.80
2023-09-02T00:14:14.151Z,22.90
2023-09-02T00:16:42.387Z,23.00
2023-09-02T00:19:10.811Z,23.10
2023-09-02T00:21:39.172Z,23.10
2023-09-02T00:24:07.778Z,23.20
2023-09-02T00:26:36.371Z,23.30
2023-09-02T00:29:04.525Z,23.40
2023-09-02T00:31:33.084Z,23.50
2023-09-02T00:34:01.329Z,23.60
2023-09-02T00:36:29.740Z,23.60
2023-09-02T00:38:59.039Z,23.20
2023-09-02T00:41:32.372Z,22.90
2023-09-02T00:44:01.649Z,22.70
2023-09-02T00:46:30.127Z,22.40
2023-09-02T00:48:58.640Z,22.40
2023-09-02T00:51:27.853Z,22.50
2023-09-02T00:53:56.555Z,22.60
2023-09-02T00:56:25.840Z,22.70
2023-09-02T00:58:57.936Z,22.90
2023-09-02T01:01:27.899Z,22.90
2023-09-02T01:03:57.025Z,23.00
2023-09-02T01:06:25.632Z,23.10
2023-09-02T01:08:53.730Z,23.20
2023-09-02T01:11:22.449Z,23.30
2023-09-02T01:13:50.589Z,23.30
2023-09-02T01:16:18.982Z,23.40
2023-09-02T01:18:49.108Z,23.50
2023-09-02T01:21:23.309Z,23.60
2023-09-02T01:24:19.518Z,23.30
2023-09-02T01:27:21.301Z,22.90
2023-09-02T01:29:53.934Z,22.60
2023-09-02T01:32:24.612Z,22.40
2023-09-02T01:34:56.144Z,22.40
2023-09-02T01:37:27.564Z,22.40
2023-09-02T01:39:58.379Z,22.60
2023-09-02T01:42:27.796Z,22.70
2023-09-02T01:44:56.881Z,22.80
2023-09-02T01:47:25.512Z,22.90
2023-09-02T01:49:54.722Z,23.00
2023-09-02T01:52:24.254Z,23.00
2023-09-02T01:54:53.252Z,23.10
2023-09-02T01:57:21.771Z,23.20
2023-09-02T01:59:50.184Z,23.30
2023-09-02T02:02:18.689Z,23.40
2023-09-02T02:04:53.640Z,23.50
2023-09-02T02:07:26.272Z,23.50
2023-09-02T02:09:59.699Z,23.20
2023-09-02T02:12:28.473Z,22.80
2023-09-02T02:14:56.967Z,22.60
2023-09-02T02:17:25.754Z,22.60
2023-09-02T02:19:54.304Z,22.80
2023-09-02T02:22:22.856Z,22.90
2023-09-02T02:24:51.115Z,23.00
2023-09-02T02:27:19.553Z,23.10
2023-09-02T02:29:48.877Z,23.10
2023-09-02T02:32:17.688Z,23.20
2023-09-02T02:34:46.125Z,23.30
2023-09-02T02:37:14.518Z,23.30
2023-09-02T02:39:43.089Z,23.40
2023-09-02T02:42:11.191Z,23.50
2023-09-02T02:44:39.487Z,23.60
2023-09-02T02:47:08.050Z,23.40
2023-09-02T02:49:36.836Z,23.10
2023-09-02T02:52:05.853Z,22.80
2023-09-02T02:54:34.534Z,22.60
2023-09-02T02:57:03.094Z,22.50
2023-09-02T02:59:31.552Z,22.60
2023-09-02T03:01:59.931Z,22.80
2023-09-02T03:04:30.316Z,22.90
2023-09-02T03:06:58.698Z,23.00
2023-09-02T03:09:27.142Z,23.10
2023-09-02T03:11:55.446Z,23.10
2023-09-02T03:14:23.890Z,23.20
2023-09-02T03:16:52.094Z,23.30
2023-09-02T03:19:21.621Z,23.30
2023-09-02T03:21:50.043Z,23.40
2023-09-02T03:24:18.746Z,23.50
2023-09-02T03:26:47.732Z,23.60
2023-09-02T03:29:15.974Z,23.40
2023-09-02T03:31:44.690Z,23.10
2023-09-02T03:34:14.055Z,22.80
2023-09-02T03:36:42.510Z,22.60
2023-09-02T03:39:10.722Z,22.40
2023-09-02T03:41:39.516Z,22.50
2023-09-02T03:44:07.649Z,22.70
2023-09-02T03:46:35.904Z,22.80
2023-09-02T03:49:04.636Z,22.90
2023-09-02T03:51:33.873Z,23.00
2023-09-02T03:54:02.777Z,23.00
2023-09-02T03:56:31.198Z,23.10
2023-09-02T03:58:59.696Z,23.20
2023-09-02T04:01:27.885Z,23.30
2023-09-02T04:03:56.374Z,23.30
2023-09-02T04:06:24.805Z,23.40
2023-09-02T04:08:53.658Z,23.50
2023-09-02T04:11:22.840Z,23.60
2023-09-02T04:13:51.106Z,23.60
2023-09-02T04:16:19.682Z,23.20
2023-09-02T04:18:47.877Z,22.90
2023-09-02T04:21:16.430Z,22.70
2023-09-02T04:23:46.080Z,22.50
2023-09-02T04:26:16.406Z,22.40
2023-09-02T04:28:44.916Z,22.50
2023-09-02T04:31:17.684Z,22.70
2023-09-02T04:33:46.869Z,22.70
2023-09-02T04:36:17.015Z,22.90
2023-09-02T04:38:46.924Z,23.00
2023-09-02T04:41:15.487Z,23.10
2023-09-02T04:43:43.973Z,23.10
2023-09-02T04:46:13.955Z,23.20
2023-09-02T04:48:45.684Z,23.20
2023-09-02T04:51:15.195Z,23.30
2023-09-02T04:53:43.189Z,23.40
2023-09-02T04:56:12.086Z,23.50
2023-09-02T04:58:41.766Z,23.60
2023-09-02T05:01:15.235Z,23.50
2023-09-02T05:03:51.408Z,23.10
2023-09-02T05:06:19.875Z,22.80
2023-09-02T05:08:50.906Z,22.60
2023-09-02T05:11:20.690Z,22.70
2023-09-02T05:13:49.336Z,22.80
2023-09-02T05:16:17.772Z,22.90
2023-09-02T05:18:46.599Z,23.00
2023-09-02T05:21:14.898Z,23.10
2023-09-02T05:23:43.620Z,23.20
2023-09-02T05:26:11.762Z,23.20
2023-09-02T05:28:39.955Z,23.30
2023-09-02T05:31:09.118Z,23.30
2023-09-02T05:33:37.453Z,23.40
2023-09-02T05:36:06.106Z,23.50
2023-09-02T05:38:34.428Z,23.60
2023-09-02T05:41:02.882Z,23.60
2023-09-02T05:43:31.520Z,23.30
2023-09-02T05:46:00.300Z,22.90
2023-09-02T05:48:28.399Z,22.70
2023-09-02T05:50:59.824Z,22.60
2023-09-02T05:53:28.389Z,22.70
2023-09-02T05:55:57.519Z,22.80
2023-09-02T05:58:26.953Z,22.90
2023-09-02T06:00:55.818Z,23.00
2023-09-02T06:03:24.016Z,23.10
2023-09-02T06:05:52.329Z,23.10
2023-09-02T06:08:20.700Z,23.20
2023-09-02T06:10:59.833Z,23.20
2023-09-02T06:13:28.786Z,23.30
2023-09-02T06:16:09.448Z,23.40
2023-09-02T06:18:40.209Z,23.50
2023-09-02T06:21:11.664Z,23.60
2023-09-02T06:23:43.518Z,23.60
2023-09-02T06:26:13.234Z,23.30
2023-09-02T06:28:42.288Z,23.00
2023-09-02T06:31:11.541Z,22.80
2023-09-02T06:33:40.105Z,22.60
2023-09-02T06:36:16.092Z,22.60
2023-09-02T06:38:45.378Z,22.70
2023-09-02T06:41:15.811Z,22.90
2023-09-02T06:43:44.984Z,23.00
2023-09-02T06:46:18.803Z,23.00
2023-09-02T06:48:48.289Z,23.20
2023-09-02T06:51:17.411Z,23.20
2023-09-02T06:53:46.362Z,23.30
2023-09-02T06:56:14.848Z,23.30
2023-09-02T06:58:45.103Z,23.40
2023-09-02T07:01:20.619Z,23.40
2023-09-02T07:03:49.062Z,23.60
2023-09-02T07:06:17.345Z,23.60
2023-09-02T07:08:46.091Z,23.70
2023-09-02T07:11:14.998Z,23.30
2023-09-02T07:13:43.246Z,23.00
2023-09-02T07:16:11.659Z,22.80
2023-09-02T07:18:40.318Z,22.80
2023-09-02T07:21:09.434Z,22.90
2023-09-02T07:23:45.877Z,23.00
2023-09-02T07:26:21.153Z,23.10
2023-09-02T07:28:50.093Z,23.20
2023-09-02T07:31:25.280Z,23.30
2023-09-02T07:33:57.119Z,23.40
2023-09-02T07:36:26.097Z,23.60
2023-09-02T07:38:58.681Z,23.70
2023-09-02T07:41:33.669Z,23.70
2023-09-02T07:44:05.156Z,23.60
2023-09-02T07:46:36.682Z,23.10
2023-09-02T07:49:05.612Z,22.80
2023-09-02T07:51:33.648Z,22.70
2023-09-02T07:54:02.121Z,22.60
2023-09-02T07:56:32.531Z,22.70
2023-09-02T07:59:06.989Z,22.90
2023-09-02T08:01:35.936Z,23.00
2023-09-02T08:04:05.627Z,23.10
2023-09-02T08:06:36.234Z,23.20
2023-09-02T08:09:05.118Z,23.30
2023-09-02T08:11:33.878Z,23.40
2023-09-02T08:14:02.332Z,23.40
2023-09-02T08:16:30.719Z,23.50
2023-09-02T08:18:59.018Z,23.50
2023-09-02T08:21:27.436Z,23.60
2023-09-02T08:23:55.689Z,23.60
2023-09-02T08:26:24.311Z,23.70
2023-09-02T08:28:52.696Z,23.80
2023-09-02T08:31:21.625Z,23.70
2023-09-02T08:33:50.124Z,23.30
2023-09-02T08:36:19.282Z,23.00
2023-09-02T08:38:54.433Z,23.00
2023-09-02T08:41:27.656Z,23.20
2023-09-02T08:43:56.980Z,23.30
2023-09-02T08:46:28.884Z,23.40
2023-09-02T08:48:58.754Z,23.50
2023-09-02T08:51:28.945Z,23.60
2023-09-02T08:53:58.897Z,23.60
2023-09-02T08:56:28.095Z,23.70
2023-09-02T08:58:57.045Z,23.70
2023-09-02T09:01:26.148Z,23.70
2023-09-02T09:03:58.368Z,23.80
2023-09-02T09:06:27.646Z,23.60
2023-09-02T09:08:58.213Z,23.30
2023-09-02T09:11:29.115Z,23.00
2023-09-02T09:14:00.242Z,22.80
2023-09-02T09:16:32.938Z,22.90
2023-09-02T09:19:03.166Z,23.10
2023-09-02T09:21:31.733Z,23.30
2023-09-02T09:24:00.135Z,23.40
2023-09-02T09:26:30.126Z,23.40
2023-09-02T09:29:00.805Z,23.60
2023-09-02T09:31:30.116Z,23.50
2023-09-02T09:34:01.595Z,23.00
2023-09-02T09:36:32.141Z,22.70
2023-09-02T09:39:05.842Z,22.80
2023-09-02T09:41:35.271Z,23.00
2023-09-02T09:44:17.555Z,23.30
2023-09-02T09:46:50.717Z,23.50
2023-09-02T09:49:40.655Z,23.60
2023-09-02T09:52:12.092Z,23.30
2023-09-02T09:54:52.187Z,22.80
2023-09-02T09:57:32.832Z,22.50
2023-09-02T10:00:02.108Z,22.80
2023-09-02T10:02:33.751Z,23.10
2023-09-02T10:05:21.056Z,23.30
2023-09-02T10:08:13.059Z,23.50
2023-09-02T10:10:42.513Z,23.40
2023-09-02T10:13:10.749Z,22.90
2023-09-02T10:15:41.456Z,22.60
2023-09-02T10:18:18.335Z,22.50
2023-09-02T10:20:48.468Z,22.80
2023-09-02T10:23:18.461Z,23.20
2023-09-02T10:26:17.107Z,23.40
2023-09-02T10:28:48.589Z,23.60
2023-09-02T10:31:25.308Z,23.40
2023-09-02T10:34:12.459Z,22.90
2023-09-02T10:36:43.723Z,22.60
2023-09-02T10:39:33.656Z,22.50
2023-09-02T10:42:06.762Z,22.90
2023-09-02T10:44:38.764Z,23.10
2023-09-02T10:47:08.020Z,23.30
2023-09-02T10:49:37.582Z,23.40
2023-09-02T10:52:07.137Z,23.50
2023-09-02T10:55:08.318Z,23.60
2023-09-02T10:57:52.573Z,23.70
2023-09-02T11:00:24.975Z,23.70
2023-09-02T11:02:59.326Z,23.70
2023-09-02T11:05:31.035Z,23.80
2023-09-02T11:07:59.871Z,23.70
2023-09-02T11:10:53.112Z,23.50
2023-09-02T11:13:22.102Z,23.30
2023-09-02T11:16:13.515Z,23.10
2023-09-02T11:18:42.400Z,23.00
2023-09-02T11:21:11.035Z,22.90
2023-09-02T11:23:40.722Z,22.80
2023-09-02T11:26:09.704Z,22.70
2023-09-02T11:28:39.732Z,22.60
2023-09-02T11:31:30.973Z,22.50
2023-09-02T11:34:03.362Z,22.70
2023-09-02T11:36:31.557Z,22.90
2023-09-02T11:39:00.170Z,23.00
2023-09-02T11:41:29.153Z,23.20
2023-09-02T11:44:10.895Z,23.30
2023-09-02T11:46:40.433Z,23.30
2023-09-02T11:49:22.457Z,23.40
2023-09-02T11:51:51.461Z,23.50
2023-09-02T11:54:20.309Z,23.50
2023-09-02T11:56:57.912Z,23.60
2023-09-02T11:59:29.766Z,23.60
2023-09-02T12:02:15.740Z,23.70
2023-09-02T12:04:53.700Z,23.70
2023-09-02T12:07:23.605Z,23.70
2023-09-02T12:09:53.011Z,23.50
2023-09-02T12:12:23.653Z,23.20
2023-09-02T12:15:03.209Z,23.00
2023-09-02T12:17:32.420Z,22.90
2023-09-02T12:20:01.412Z,22.80
2023-09-02T12:22:29.921Z,22.70
2023-09-02T12:24:58.731Z,22.60
2023-09-02T12:27:27.813Z,22.50
2023-09-02T12:30:00.916Z,22.70
2023-09-02T12:32:33.902Z,22.90
2023-09-02T12:35:10.944Z,23.00
2023-09-02T12:37:55.028Z,23.10
2023-09-02T12:40:23.552Z,23.20
2023-09-02T12:43:11.153Z,23.30
2023-09-02T12:45:59.448Z,23.40
2023-09-02T12:48:27.907Z,23.50
2023-09-02T12:50:59.917Z,23.60
2023-09-02T12:53:29.767Z,23.60
2023-09-02T12:55:59.128Z,23.70
2023-09-02T12:58:27.637Z,23.70
2023-09-02T13:00:56.573Z,23.80
2023-09-02T13:03:26.337Z,23.60
2023-09-02T13:09:16.410Z,23.10
2023-09-02T13:11:52.493Z,22.90
2023-09-02T13:14:22.647Z,22.80
2023-09-02T13:16:51.013Z,22.70
2023-09-02T13:19:25.553Z,22.70
2023-09-02T13:21:55.675Z,22.50
2023-09-02T13:24:31.233Z,22.50
2023-09-02T13:27:02.933Z,22.60
2023-09-02T13:29:31.749Z,22.70
2023-09-02T13:32:11.128Z,22.90
2023-09-02T13:34:41.706Z,23.00
2023-09-02T13:37:28.087Z,23.20
2023-09-02T13:40:06.011Z,23.20
2023-09-02T13:42:35.891Z,23.30
2023-09-02T13:45:16.291Z,23.40
2023-09-02T13:47:51.903Z,23.50
2023-09-02T13:50:22.569Z,23.60
2023-09-02T13:52:52.926Z,23.60
2023-09-02T13:55:29.016Z,23.70
2023-09-02T13:58:03.643Z,23.70
2023-09-02T14:00:53.918Z,23.40
2023-09-02T14:03:26.088Z,23.20
2023-09-02T14:06:15.569Z,23.00
2023-09-02T14:08:44.224Z,22.80
2023-09-02T14:11:15.057Z,22.70
2023-09-02T14:13:46.652Z,22.60
2023-09-02T14:16:16.404Z,22.50
2023-09-02T14:18:44.900Z,22.50
2023-09-02T14:21:14.989Z,22.40
2023-09-02T14:23:43.544Z,22.40
2023-09-02T14:26:11.876Z,22.30
2023-09-02T14:28:42.630Z,22.30
2023-09-02T14:31:11.134Z,22.50
2023-09-02T14:33:39.550Z,22.70
2023-09-02T14:36:08.247Z,22.80
2023-09-02T14:38:36.596Z,23.00
2023-09-02T14:41:04.990Z,23.10
2023-09-02T14:43:33.454Z,23.10
2023-09-02T14:46:22.685Z,23.20
2023-09-02T14:49:05.232Z,23.30
2023-09-02T14:59:51.480Z,23.60
2023-09-02T15:02:45.717Z,23.50
2023-09-02T15:05:26.255Z,23.20
2023-09-02T15:07:55.067Z,22.90
2023-09-02T15:10:27.634Z,22.80
2023-09-02T15:13:02.763Z,22.70
2023-09-02T15:15:49.277Z,22.60
2023-09-02T15:18:27.031Z,22.50
2023-09-02T15:20:56.685Z,22.50
2023-09-02T15:23:26.400Z,22.50
2023-09-02T15:26:10.174Z,22.30
2023-09-02T15:28:51.153Z,22.30
2023-09-02T15:31:24.536Z,22.30
2023-09-02T15:34:16.051Z,22.20
2023-09-02T15:37:00.127Z,22.30
2023-09-02T15:39:30.785Z,22.50
2023-09-02T15:42:02.560Z,22.70
2023-09-02T15:44:35.157Z,22.80
2023-09-02T15:47:12.847Z,23.00
2023-09-02T15:49:42.364Z,23.10
2023-09-02T15:52:37.444Z,23.20
2023-09-02T15:55:07.930Z,23.30
2023-09-02T15:57:47.729Z,23.30
2023-09-02T16:00:17.323Z,23.40
2023-09-02T16:02:45.465Z,23.50
2023-09-02T16:05:14.072Z,23.60
2023-09-02T16:07:42.651Z,23.50
2023-09-02T16:10:11.328Z,23.20
2023-09-02T16:12:39.620Z,23.00
2023-09-02T16:15:08.432Z,22.80
2023-09-02T16:17:37.172Z,22.70
2023-09-02T16:20:06.144Z,22.70
2023-09-02T16:22:34.648Z,22.50
2023-09-02T16:25:03.178Z,22.50
2023-09-02T16:27:31.490Z,22.50
2023-09-02T16:30:01.035Z,22.50
2023-09-02T16:32:31.245Z,22.40
2023-09-02T16:35:00.858Z,22.30
2023-09-02T16:37:29.587Z,22.30
2023-09-02T16:40:00.559Z,22.30
2023-09-02T16:42:34.013Z,22.20
2023-09-02T16:45:07.967Z,22.20
2023-09-02T16:47:50.180Z,22.20
2023-09-02T16:50:21.661Z,22.10
2023-09-02T16:52:52.286Z,22.30
2023-09-02T16:55:22.084Z,22.50
2023-09-02T16:57:52.653Z,22.70
2023-09-02T17:00:23.809Z,22.80
2023-09-02T17:02:54.272Z,22.90
2023-09-02T17:05:25.302Z,23.10
2023-09-02T17:07:54.914Z,23.10
2023-09-02T17:10:37.408Z,23.20
2023-09-02T17:13:06.131Z,23.30
2023-09-02T17:15:37.558Z,23.40
2023-09-02T17:18:15.337Z,23.50
2023-09-02T17:20:44.702Z,23.60
2023-09-02T17:23:15.837Z,23.60
2023-09-02T17:25:45.912Z,23.30
2023-09-02T17:28:21.089Z,23.10
2023-09-02T17:30:57.476Z,22.90
2023-09-02T17:33:26.400Z,22.70
2023-09-02T17:35:54.662Z,22.60
2023-09-02T17:38:23.095Z,22.50
2023-09-02T17:40:51.522Z,22.40
2023-09-02T17:43:20.125Z,22.30
2023-09-02T17:45:48.408Z,22.30
2023-09-02T17:48:17.015Z,22.50
2023-09-02T17:50:45.372Z,22.70
2023-09-02T17:53:13.820Z,22.80
2023-09-02T17:55:42.068Z,22.90
2023-09-02T17:58:10.490Z,23.00
2023-09-02T18:00:39.028Z,23.10
2023-09-02T18:03:07.515Z,23.20
2023-09-02T18:05:36.410Z,23.30
2023-09-02T18:08:05.349Z,23.40
2023-09-02T18:10:33.984Z,23.40
2023-09-02T18:13:02.627Z,23.60
2023-09-02T18:15:31.174Z,23.60
2023-09-02T18:18:09.702Z,23.70
2023-09-02T18:20:38.566Z,23.60
2023-09-02T18:23:07.575Z,23.30
2023-09-02T18:25:36.263Z,23.00
2023-09-02T18:28:05.218Z,22.90
2023-09-02T18:30:34.044Z,22.80
2023-09-02T18:33:03.918Z,22.70
2023-09-02T18:35:45.102Z,22.60
2023-09-02T18:38:15.814Z,22.50
2023-09-02T18:41:14.650Z,22.40
2023-09-02T18:43:43.461Z,22.40
2023-09-02T18:46:23.026Z,22.30
2023-09-02T18:48:52.076Z,22.50
2023-09-02T18:51:21.395Z,22.70
2023-09-02T18:53:50.073Z,22.80
2023-09-02T18:56:19.191Z,22.90
2023-09-02T18:58:50.843Z,23.00
2023-09-02T19:01:19.686Z,23.10
2023-09-02T19:03:48.069Z,23.20
2023-09-02T19:06:23.312Z,23.30
2023-09-02T19:08:51.895Z,23.40
2023-09-02T19:11:23.771Z,23.40
2023-09-02T19:13:52.620Z,23.50
2023-09-02T19:16:43.977Z,23.60
2023-09-02T19:19:13.461Z,23.70
2023-09-02T19:21:42.777Z,23.50
2023-09-02T19:24:12.076Z,23.20
2023-09-02T19:26:44.498Z,23.00
2023-09-02T19:29:34.588Z,22.80
2023-09-02T19:32:13.660Z,22.70
2023-09-02T19:34:42.982Z,22.60
2023-09-02T19:37:14.804Z,22.40
2023-09-02T19:39:43.362Z,22.40
2023-09-02T19:42:12.307Z,22.40
2023-09-02T19:44:44.683Z,22.60
2023-09-02T19:47:27.816Z,22.80
2023-09-02T19:50:09.117Z,22.90
2023-09-02T19:52:40.111Z,23.00
2023-09-02T19:55:21.572Z,23.10
2023-09-02T19:57:56.731Z,23.20
2023-09-02T20:00:25.821Z,23.30
2023-09-02T20:02:54.584Z,23.40
2023-09-02T20:05:35.526Z,23.50
2023-09-02T20:08:04.318Z,23.70
2023-09-02T20:10:36.256Z,23.70
2023-09-02T20:13:05.223Z,23.60
2023-09-02T20:18:20.357Z,23.10
2023-09-02T20:20:56.502Z,23.30
2023-09-02T20:23:27.190Z,23.40
2023-09-02T20:25:57.542Z,23.40
2023-09-02T20:28:34.794Z,23.50
2023-09-02T20:31:07.894Z,23.50
2023-09-02T20:33:37.107Z,23.60
2023-09-02T20:36:13.153Z,23.60
2023-09-02T20:38:43.679Z,23.70
2023-09-02T20:41:17.948Z,23.80
2023-09-02T20:43:55.405Z,23.70
2023-09-02T20:46:23.853Z,23.30
2023-09-02T20:48:54.042Z,23.10
2023-09-02T20:51:22.546Z,22.90
2023-09-02T20:53:58.355Z,22.70
2023-09-02T20:56:27.576Z,22.70
2023-09-02T20:58:56.564Z,22.60
2023-09-02T21:01:25.415Z,22.40
2023-09-02T21:03:54.004Z,22.40
2023-09-02T21:06:22.688Z,22.60
2023-09-02T21:08:54.344Z,22.70
2023-09-02T21:11:41.740Z,22.90
2023-09-02T21:17:08.415Z,23.10
2023-09-02T21:19:45.724Z,23.20
2023-09-02T21:22:27.079Z,23.20
2023-09-02T21:24:59.834Z,23.30
2023-09-02T21:27:52.820Z,23.40
2023-09-02T21:30:22.097Z,23.50
2023-09-02T21:32:53.470Z,23.60
2023-09-02T21:35:24.793Z,23.70
2023-09-02T21:37:53.728Z,23.70
2023-09-02T21:40:30.216Z,23.30
2023-09-02T21:45:50.925Z,22.80
2023-09-02T21:48:24.590Z,22.60
2023-09-02T21:51:11.806Z,22.60
2023-09-02T21:53:57.976Z,22.70
2023-09-02T21:56:28.008Z,22.80
2023-09-02T21:58:56.635Z,23.00
2023-09-02T22:01:34.677Z,23.10
2023-09-02T22:04:10.155Z,23.20
2023-09-02T22:06:40.452Z,23.30
2023-09-02T22:09:23.029Z,23.30
2023-09-02T22:12:14.468Z,23.40
2023-09-02T22:14:44.864Z,23.50
2023-09-02T22:17:14.898Z,23.60
2023-09-02T22:19:44.427Z,23.70
2023-09-02T22:22:17.228Z,23.70
2023-09-02T22:24:47.497Z,23.30
2023-09-02T22:27:24.013Z,23.10
2023-09-02T22:29:52.806Z,22.80
2023-09-02T22:32:30.472Z,22.70
2023-09-02T22:34:59.263Z,22.60
2023-09-02T22:37:29.334Z,22.50
2023-09-02T22:40:13.250Z,22.60
2023-09-02T22:42:41.996Z,22.80
2023-09-02T22:45:10.690Z,22.90
2023-09-02T22:47:39.044Z,23.00
2023-09-02T22:50:08.068Z,23.10
2023-09-02T22:52:37.249Z,23.20
2023-09-02T22:55:06.020Z,23.30
2023-09-02T22:57:34.468Z,23.30
2023-09-02T23:00:03.461Z,23.40
2023-09-02T23:02:32.509Z,23.50
2023-09-02T23:05:01.863Z,23.60
2023-09-02T23:09:17.072Z,23.70
2023-09-02T23:11:55.887Z,23.70
2023-09-02T23:14:24.552Z,23.70
2023-09-02T23:16:54.196Z,23.30
2023-09-02T23:19:26.003Z,23.00
2023-09-02T23:22:11.014Z,22.80
2023-09-02T23:24:40.741Z,22.70
2023-09-02T23:27:09.433Z,22.60
2023-09-02T23:29:38.525Z,22.50
2023-09-02T23:32:09.201Z,22.60
2023-09-02T23:34:43.421Z,22.70
2023-09-02T23:37:15.972Z,22.80
2023-09-02T23:39:54.487Z,23.00
2023-09-02T23:42:24.860Z,23.10
2023-09-02T23:44:53.906Z,23.20
2023-09-02T23:47:22.558Z,23.20
2023-09-02T23:49:51.879Z,23.30
2023-09-02T23:52:22.474Z,23.40
2023-09-02T23:54:57.591Z,23.40
2023-09-02T23:57:26.666Z,23.50
2023-09-02T23:59:56.103Z,23.60
